Time;durP1;ratioP1;P1;durP2;ratioP2;P2;SDS_P1;SDS_P2;PMS_P1;PMS_P2;Temp;Humidity;BMP_temperature;BMP_pressure;BME280_temperature;BME280_humidity;BME280_pressure;Samples;Min_cycle;Max_cycle;Signal;HPM_P1;HPM_P2
2023/05/18 00:00:44;;;;;;;15.50;5.57;;;9.10;59.70;;;;;;5096382;28;20172;-71
2023/05/18 00:03:10;;;;;;;16.73;6.30;;;9.10;61.20;;;;;;5095970;28;20199;-70
2023/05/18 00:05:35;;;;;;;11.80;4.73;;;9.00;62.00;;;;;;5096186;28;20176;-70
2023/05/18 00:08:01;;;;;;;16.20;5.17;;;9.00;57.60;;;;;;5095775;28;20680;-71
2023/05/18 00:10:27;;;;;;;17.63;10.57;;;9.00;58.60;;;;;;5096310;28;20168;-71
2023/05/18 00:12:53;;;;;;;10.63;5.07;;;9.00;56.60;;;;;;5096073;28;20560;-71
2023/05/18 00:15:19;;;;;;;15.13;5.23;;;9.00;56.00;;;;;;5095948;28;20171;-71
2023/05/18 00:17:45;;;;;;;14.03;4.70;;;9.00;57.20;;;;;;5094328;28;20175;-70
2023/05/18 00:20:11;;;;;;;15.00;5.00;;;9.00;54.10;;;;;;5095983;28;20660;-69
2023/05/18 00:22:41;;;;;;;9.93;4.13;;;9.00;51.50;;;;;;5095750;28;20246;-71
2023/05/18 00:25:07;;;;;;;16.77;4.60;;;9.00;48.30;;;;;;5095776;28;20160;-70
2023/05/18 00:27:33;;;;;;;15.80;4.87;;;9.00;52.10;;;;;;5094803;28;20534;-70
2023/05/18 00:29:58;;;;;;;13.97;5.00;;;9.00;50.00;;;;;;5095696;28;20212;-70
2023/05/18 00:32:24;;;;;;;13.43;4.90;;;9.00;52.50;;;;;;5094011;28;20261;-71
2023/05/18 00:34:50;;;;;;;11.30;4.77;;;9.00;54.00;;;;;;5095522;28;20170;-70
2023/05/18 00:37:15;;;;;;;32.93;6.53;;;8.90;46.70;;;;;;5095422;28;20528;-70
2023/05/18 00:39:41;;;;;;;26.60;6.10;;;8.90;50.50;;;;;;5095470;28;20168;-70
2023/05/18 00:42:07;;;;;;;11.57;4.73;;;8.90;51.40;;;;;;5095519;28;20168;-71
2023/05/18 00:44:32;;;;;;;9.83;4.03;;;8.80;53.10;;;;;;5094162;28;20174;-71
2023/05/18 00:46:59;;;;;;;12.03;5.10;;;8.80;52.70;;;;;;5093875;28;20168;-71
2023/05/18 00:49:25;;;;;;;12.87;5.03;;;8.80;56.50;;;;;;5095051;28;20183;-71
2023/05/18 00:51:52;;;;;;;12.70;4.83;;;8.70;57.90;;;;;;5095240;28;20582;-71
2023/05/18 00:54:18;;;;;;;14.07;4.87;;;8.70;60.90;;;;;;5095094;28;20169;-70
2023/05/18 00:56:47;;;;;;;9.60;4.77;;;8.60;62.80;;;;;;5095167;28;20179;-69
2023/05/18 00:59:14;;;;;;;7.07;4.20;;;8.60;64.90;;;;;;5093746;28;20179;-71
2023/05/18 01:01:44;;;;;;;8.47;4.00;;;8.60;65.40;;;;;;5094420;28;20166;-70
2023/05/18 01:04:13;;;;;;;12.40;4.40;;;8.50;64.70;;;;;;5093641;28;20546;-70
2023/05/18 01:06:40;;;;;;;11.00;4.67;;;8.60;65.60;;;;;;5093733;28;20263;-70
2023/05/18 01:09:11;;;;;;;10.50;4.70;;;8.50;66.50;;;;;;5094833;28;20749;-70
2023/05/18 01:11:45;;;;;;;10.83;4.07;;;8.50;68.70;;;;;;5093629;28;20199;-71
2023/05/18 01:14:32;;;;;;;11.97;4.90;;;8.40;70.10;;;;;;5094761;28;20247;-71
2023/05/18 01:17:25;;;;;;;10.33;4.23;;;8.40;68.70;;;;;;5094434;28;20657;-69
2023/05/18 01:19:54;;;;;;;12.27;4.27;;;8.40;72.00;;;;;;5093395;28;20167;-70
2023/05/18 01:22:49;;;;;;;15.50;4.43;;;8.40;75.00;;;;;;5094521;28;20696;-70
2023/05/18 01:25:32;;;;;;;12.90;5.07;;;8.40;77.40;;;;;;5094594;28;20167;-70
2023/05/18 01:28:05;;;;;;;8.67;4.50;;;8.30;78.30;;;;;;5094572;28;20180;-70
2023/05/18 01:30:33;;;;;;;11.80;4.50;;;8.30;79.90;;;;;;5093911;28;20234;-70
2023/05/18 01:32:58;;;;;;;16.97;5.43;;;8.30;79.80;;;;;;5094286;28;20203;-69
2023/05/18 01:35:24;;;;;;;13.77;5.17;;;8.30;80.40;;;;;;5092856;28;20691;-70
2023/05/18 01:37:50;;;;;;;7.30;4.40;;;8.30;79.70;;;;;;5094379;28;20179;-70
2023/05/18 01:40:15;;;;;;;13.47;4.77;;;8.20;83.10;;;;;;5094335;28;20167;-70
2023/05/18 01:42:53;;;;;;;9.73;4.60;;;8.20;87.80;;;;;;5094223;28;20165;-71
2023/05/18 01:45:26;;;;;;;14.37;4.87;;;8.10;90.10;;;;;;5093993;28;20175;-70
2023/05/18 01:47:57;;;;;;;23.87;5.47;;;8.10;89.70;;;;;;5094090;28;20171;-70
2023/05/18 01:50:30;;;;;;;11.57;4.97;;;8.10;90.40;;;;;;5094079;28;20203;-70
2023/05/18 01:53:09;;;;;;;11.50;5.07;;;8.10;91.80;;;;;;5094009;28;20207;-70
2023/05/18 01:55:36;;;;;;;10.50;4.70;;;8.10;91.50;;;;;;5092812;28;20250;-70
2023/05/18 01:58:04;;;;;;;11.87;5.43;;;8.10;91.20;;;;;;5093901;28;20688;-70
2023/05/18 02:00:30;;;;;;;12.93;5.60;;;8.10;90.70;;;;;;5093519;28;20258;-70
2023/05/18 02:02:56;;;;;;;12.13;5.40;;;8.00;91.60;;;;;;5093737;28;20203;-70
2023/05/18 02:05:22;;;;;;;12.40;5.27;;;8.00;93.30;;;;;;5093866;28;20172;-70
2023/05/18 02:07:48;;;;;;;7.43;4.80;;;8.00;94.60;;;;;;5093748;28;20195;-70
2023/05/18 02:10:14;;;;;;;9.37;5.10;;;7.90;95.70;;;;;;5093980;28;20179;-70
2023/05/18 02:12:39;;;;;;;7.23;5.37;;;7.90;94.90;;;;;;5092252;28;20538;-71
2023/05/18 02:15:07;;;;;;;16.30;5.53;;;7.90;96.00;;;;;;5092802;28;20191;-69
2023/05/18 02:17:36;;;;;;;10.40;5.00;;;7.90;96.80;;;;;;5093723;28;20247;-69
2023/05/18 02:20:06;;;;;;;10.77;5.40;;;7.90;96.90;;;;;;5093725;28;20172;-70
2023/05/18 02:22:32;;;;;;;13.80;5.97;;;7.80;98.10;;;;;;5093487;28;20172;-69
2023/05/18 02:24:57;;;;;;;13.27;5.57;;;7.90;97.60;;;;;;5092365;28;20176;-69
2023/05/18 02:27:23;;;;;;;13.43;5.20;;;7.90;97.00;;;;;;5093148;28;20251;-69
2023/05/18 02:29:48;;;;;;;12.80;5.20;;;7.80;99.40;;;;;;5093170;28;20753;-69
2023/05/18 02:32:14;;;;;;;14.43;5.23;;;7.80;99.60;;;;;;5093324;28;20211;-70
2023/05/18 02:34:42;;;;;;;12.63;5.30;;;7.80;98.20;;;;;;5093601;28;20192;-70
2023/05/18 02:37:07;;;;;;;9.80;5.63;;;7.80;97.70;;;;;;5093311;28;20316;-70
2023/05/18 02:39:33;;;;;;;15.30;5.23;;;7.80;98.20;;;;;;5093333;28;20168;-69
2023/05/18 02:41:59;;;;;;;10.67;5.07;;;7.80;98.40;;;;;;5092835;28;20178;-70
2023/05/18 02:44:25;;;;;;;14.93;4.93;;;7.80;97.30;;;;;;5093465;28;20179;-70
2023/05/18 02:46:51;;;;;;;13.13;5.50;;;7.70;96.80;;;;;;5093262;28;20642;-70
2023/05/18 02:49:16;;;;;;;8.33;4.67;;;7.70;99.40;;;;;;5093232;28;20217;-70
2023/05/18 02:51:42;;;;;;;12.17;5.70;;;7.70;99.90;;;;;;5093105;28;20203;-70
2023/05/18 02:54:07;;;;;;;12.57;5.80;;;7.70;99.50;;;;;;5093292;28;20188;-70
2023/05/18 02:56:33;;;;;;;14.43;5.60;;;7.60;99.90;;;;;;5092808;28;20182;-69
2023/05/18 02:58:59;;;;;;;12.60;6.07;;;7.60;99.90;;;;;;5093124;28;20167;-70
2023/05/18 03:01:26;;;;;;;14.37;5.37;;;7.60;99.90;;;;;;5093257;28;20183;-70
2023/05/18 03:03:58;;;;;;;12.43;5.70;;;7.60;99.30;;;;;;5093233;28;20176;-69
2023/05/18 03:06:25;;;;;;;7.23;5.40;;;7.50;99.90;;;;;;5093083;28;20174;-69
2023/05/18 03:08:55;;;;;;;8.33;5.37;;;7.50;99.90;;;;;;5092938;28;20179;-70
2023/05/18 03:11:21;;;;;;;13.23;5.10;;;7.50;99.90;;;;;;5092592;28;20631;-70
2023/05/18 03:13:47;;;;;;;12.57;5.27;;;7.40;99.90;;;;;;5091590;28;20184;-70
2023/05/18 03:16:13;;;;;;;10.90;5.13;;;7.40;99.90;;;;;;5092867;28;20516;-70
2023/05/18 03:18:39;;;;;;;13.93;5.80;;;7.30;99.90;;;;;;5092779;28;20637;-70
2023/05/18 03:21:06;;;;;;;12.10;5.13;;;7.30;99.90;;;;;;5091723;28;20258;-70
2023/05/18 03:23:33;;;;;;;9.40;5.30;;;7.40;99.90;;;;;;5092727;28;20168;-70
2023/05/18 03:26:01;;;;;;;12.23;5.30;;;7.40;99.90;;;;;;5095236;28;20172;-70
2023/05/18 03:28:27;;;;;;;11.03;5.30;;;7.40;99.90;;;;;;5096808;28;20627;-70
2023/05/18 03:30:53;;;;;;;11.20;5.63;;;7.30;99.90;;;;;;5096358;28;20244;-70
2023/05/18 03:33:19;;;;;;;16.13;5.67;;;7.30;99.90;;;;;;5096549;28;20269;-70
2023/05/18 03:35:45;;;;;;;12.33;5.60;;;7.30;99.90;;;;;;5096789;28;20560;-70
2023/05/18 03:38:10;;;;;;;12.50;5.40;;;7.30;99.90;;;;;;5096651;28;20226;-70
2023/05/18 03:40:36;;;;;;;13.87;5.30;;;7.20;99.90;;;;;;5096312;28;20168;-70
2023/05/18 03:43:02;;;;;;;15.33;5.87;;;7.20;99.90;;;;;;5096427;28;20171;-70
2023/05/18 03:45:27;;;;;;;12.17;5.73;;;7.20;99.90;;;;;;5095308;28;20172;-70
2023/05/18 03:47:53;;;;;;;12.57;5.80;;;7.20;99.90;;;;;;5096490;28;20179;-70
2023/05/18 03:50:20;;;;;;;11.50;5.60;;;7.20;99.90;;;;;;5094875;28;20178;-70
2023/05/18 03:52:45;;;;;;;14.07;5.87;;;7.20;99.90;;;;;;5096236;28;20242;-70
2023/05/18 03:55:11;;;;;;;13.87;5.80;;;7.20;99.90;;;;;;5095858;28;20203;-70
2023/05/18 03:57:38;;;;;;;11.40;6.03;;;7.20;99.90;;;;;;5096083;28;20187;-69
2023/05/18 04:00:08;;;;;;;11.07;5.57;;;7.20;99.90;;;;;;5096560;28;20179;-70
2023/05/18 04:02:33;;;;;;;14.03;5.57;;;7.20;99.90;;;;;;5096251;28;20267;-69
2023/05/18 04:04:59;;;;;;;13.00;5.40;;;7.20;99.90;;;;;;5095785;28;20241;-70
2023/05/18 04:07:25;;;;;;;15.33;5.23;;;7.10;99.90;;;;;;5095734;28;20180;-70
2023/05/18 04:09:52;;;;;;;12.23;5.80;;;7.10;99.90;;;;;;5094488;28;20263;-70
2023/05/18 04:12:18;;;;;;;17.23;5.97;;;7.10;99.90;;;;;;5095842;28;20203;-70
2023/05/18 04:14:50;;;;;;;12.37;6.13;;;7.10;99.90;;;;;;5095950;28;20171;-70
2023/05/18 04:17:17;;;;;;;12.60;5.60;;;7.10;99.90;;;;;;5096016;28;20220;-70
2023/05/18 04:19:42;;;;;;;12.90;5.40;;;7.20;99.90;;;;;;5095837;28;20172;-70
2023/05/18 04:22:08;;;;;;;11.80;5.83;;;7.20;99.90;;;;;;5095502;28;20784;-69
2023/05/18 04:24:34;;;;;;;13.93;5.77;;;7.20;99.90;;;;;;5094165;28;20310;-69
2023/05/18 04:27:01;;;;;;;9.70;5.23;;;7.30;99.90;;;;;;5095365;28;20182;-71
2023/05/18 04:29:27;;;;;;;9.77;5.50;;;7.20;99.90;;;;;;5095773;28;20160;-72
2023/05/18 04:31:59;;;;;;;12.67;5.37;;;7.30;99.90;;;;;;5094005;28;20224;-70
2023/05/18 04:34:28;;;;;;;13.37;5.33;;;7.40;99.90;;;;;;5095666;28;20222;-70
2023/05/18 04:36:57;;;;;;;10.70;5.10;;;7.50;99.90;;;;;;5094609;28;20168;-71
2023/05/18 04:39:24;;;;;;;12.03;5.13;;;8.00;97.90;;;;;;5095034;28;20168;-71
2023/05/18 04:41:56;;;;;;;18.03;5.53;;;8.10;78.60;;;;;;5095379;28;20191;-71
2023/05/18 04:44:28;;;;;;;13.37;4.87;;;8.30;73.90;;;;;;5095250;28;20156;-71
2023/05/18 04:46:55;;;;;;;10.23;4.70;;;8.10;73.10;;;;;;5093953;28;20233;-72
2023/05/18 04:49:21;;;;;;;11.93;5.50;;;8.10;72.90;;;;;;5094841;28;20674;-71
2023/05/18 04:51:49;;;;;;;10.10;5.50;;;8.00;76.50;;;;;;5094829;28;20227;-71
2023/05/18 04:54:15;;;;;;;14.43;5.50;;;7.90;83.00;;;;;;5094857;28;20164;-71
2023/05/18 04:56:41;;;;;;;11.97;5.00;;;7.90;88.40;;;;;;5095208;28;20658;-71
2023/05/18 04:59:08;;;;;;;17.60;5.63;;;7.90;84.50;;;;;;5094912;28;20159;-71
2023/05/18 05:01:33;;;;;;;12.47;5.80;;;7.90;84.30;;;;;;5094493;28;20160;-71
2023/05/18 05:03:59;;;;;;;9.07;5.30;;;7.90;83.00;;;;;;5095180;28;20164;-71
2023/05/18 05:06:25;;;;;;;12.10;5.30;;;8.00;80.40;;;;;;5094626;28;20202;-72
2023/05/18 05:08:51;;;;;;;10.57;5.67;;;8.20;74.70;;;;;;5094247;28;20574;-72
2023/05/18 05:11:16;;;;;;;7.70;5.40;;;8.40;65.40;;;;;;5094666;28;20168;-72
2023/05/18 05:13:42;;;;;;;8.37;5.20;;;8.50;54.40;;;;;;5094130;28;20305;-72
2023/05/18 05:16:07;;;;;;;12.47;5.30;;;8.60;54.60;;;;;;5094546;28;20179;-71
2023/05/18 05:18:33;;;;;;;14.80;5.70;;;8.70;50.40;;;;;;5094563;28;20172;-71
2023/05/18 05:20:59;;;;;;;10.30;5.57;;;8.70;45.80;;;;;;5093241;28;20172;-71
2023/05/18 05:23:24;;;;;;;13.00;5.20;;;8.50;49.70;;;;;;5094276;28;20182;-71
2023/05/18 05:25:50;;;;;;;8.23;5.60;;;8.80;47.80;;;;;;5094260;28;20229;-72
2023/05/18 05:28:16;;;;;;;11.97;5.70;;;8.90;44.50;;;;;;5093216;28;20172;-71
2023/05/18 05:30:41;;;;;;;9.37;5.07;;;8.90;38.90;;;;;;5094066;28;20585;-71
2023/05/18 05:33:07;;;;;;;12.87;5.23;;;9.00;36.40;;;;;;5094579;28;20674;-72
2023/05/18 05:35:32;;;;;;;10.63;5.07;;;8.90;37.40;;;;;;5094425;28;20633;-71
2023/05/18 05:37:58;;;;;;;10.43;5.37;;;8.70;42.50;;;;;;5093727;28;20168;-71
2023/05/18 05:40:24;;;;;;;9.77;5.30;;;8.70;43.60;;;;;;5093855;28;20174;-71
2023/05/18 05:42:49;;;;;;;12.70;5.20;;;8.40;50.90;;;;;;5094219;28;20167;-73
2023/05/18 05:45:15;;;;;;;9.83;5.13;;;8.50;50.50;;;;;;5093670;28;20651;-73
2023/05/18 05:47:40;;;;;;;9.50;5.40;;;8.50;49.30;;;;;;5093859;28;20180;-71
2023/05/18 05:50:06;;;;;;;10.10;5.43;;;8.60;47.50;;;;;;5092747;28;20233;-72
2023/05/18 05:52:32;;;;;;;8.57;6.00;;;8.70;43.00;;;;;;5093308;28;20207;-72
2023/05/18 05:54:58;;;;;;;8.60;5.50;;;8.80;37.10;;;;;;5093918;28;20178;-72
2023/05/18 05:57:23;;;;;;;9.10;5.17;;;8.90;37.80;;;;;;5093673;28;20171;-73
2023/05/18 05:59:49;;;;;;;12.53;5.83;;;9.00;30.20;;;;;;5093779;28;20164;-73
2023/05/18 06:02:15;;;;;;;15.07;6.47;;;9.20;32.70;;;;;;5093462;28;20176;-71
2023/05/18 06:04:41;;;;;;;10.67;5.93;;;9.40;23.40;;;;;;5093665;28;20254;-71
2023/05/18 06:07:06;;;;;;;8.17;5.57;;;9.60;18.90;;;;;;5093578;28;20707;-71
2023/05/18 06:09:32;;;;;;;11.90;5.67;;;9.70;14.40;;;;;;5093011;28;20195;-71
2023/05/18 06:11:57;;;;;;;10.40;5.63;;;9.70;16.60;;;;;;5093340;28;20295;-71
2023/05/18 06:14:23;;;;;;;9.57;5.83;;;9.60;11.20;;;;;;5093247;28;20623;-72
2023/05/18 06:16:49;;;;;;;9.63;5.63;;;9.40;16.60;;;;;;5092272;28;20532;-72
2023/05/18 06:19:14;;;;;;;11.43;5.60;;;9.30;14.80;;;;;;5092105;28;20164;-72
2023/05/18 06:21:40;;;;;;;13.07;5.90;;;9.50;19.30;;;;;;5091381;28;20180;-72
2023/05/18 06:24:06;;;;;;;15.00;5.63;;;10.10;9.70;;;;;;5093264;28;20172;-71
2023/05/18 06:26:31;;;;;;;11.20;5.50;;;10.30;1.00;;;;;;5093366;28;20172;-72
2023/05/18 06:28:57;;;;;;;9.90;5.90;;;10.20;1.00;;;;;;5092967;28;20175;-72
2023/05/18 06:31:23;;;;;;;12.40;5.67;;;10.30;1.00;;;;;;5093060;28;20230;-72
2023/05/18 06:33:48;;;;;;;12.20;6.67;;;10.40;1.00;;;;;;5093184;28;20662;-72
2023/05/18 06:36:17;;;;;;;12.33;5.37;;;10.60;1.00;;;;;;5091133;28;20211;-71
2023/05/18 06:38:43;;;;;;;16.10;5.77;;;10.30;1.00;;;;;;5093031;28;20694;-72
2023/05/18 06:41:08;;;;;;;10.60;5.47;;;10.20;1.00;;;;;;5092772;28;20242;-71
2023/05/18 06:43:34;;;;;;;13.37;5.60;;;10.10;1.00;;;;;;5093171;28;20187;-72
2023/05/18 06:46:00;;;;;;;12.33;5.93;;;10.20;1.00;;;;;;5093399;28;20183;-72
2023/05/18 06:48:27;;;;;;;9.67;5.90;;;10.10;1.00;;;;;;5093092;28;20607;-72
2023/05/18 06:50:53;;;;;;;11.93;5.90;;;9.90;3.90;;;;;;5093111;28;20172;-72
2023/05/18 06:53:19;;;;;;;8.97;6.53;;;9.90;1.50;;;;;;5092849;28;20424;-72
2023/05/18 06:55:45;;;;;;;10.73;5.87;;;10.00;3.50;;;;;;5092818;28;20643;-72
2023/05/18 06:58:11;;;;;;;11.07;6.10;;;10.00;1.00;;;;;;5092302;28;20171;-72
2023/05/18 07:00:37;;;;;;;11.67;6.10;;;10.30;1.00;;;;;;5094814;28;20193;-72
2023/05/18 07:03:03;;;;;;;10.73;6.40;;;10.50;1.00;;;;;;5095385;28;20647;-72
2023/05/18 07:05:29;;;;;;;10.43;6.13;;;10.80;1.00;;;;;;5095845;28;20251;-72
2023/05/18 07:07:55;;;;;;;9.70;6.03;;;11.10;1.00;;;;;;5096745;28;20195;-72
2023/05/18 07:10:21;;;;;;;11.67;5.90;;;11.20;1.00;;;;;;5095583;28;20180;-72
2023/05/18 07:12:47;;;;;;;9.93;5.43;;;11.30;1.00;;;;;;5096206;28;20214;-72
2023/05/18 07:15:13;;;;;;;10.40;5.90;;;11.50;1.00;;;;;;5095393;28;20172;-72
2023/05/18 07:17:39;;;;;;;12.33;6.40;;;11.80;1.00;;;;;;5095464;28;20176;-72
2023/05/18 07:20:06;;;;;;;10.53;5.53;;;12.50;1.00;;;;;;5096136;28;20692;-73
2023/05/18 07:22:33;;;;;;;10.17;5.60;;;12.60;1.00;;;;;;5096530;28;20203;-72
2023/05/18 07:24:59;;;;;;;12.50;5.70;;;13.30;1.00;;;;;;5096945;28;20696;-72
2023/05/18 07:27:25;;;;;;;9.73;5.60;;;14.10;1.00;;;;;;5096302;28;20187;-72
2023/05/18 07:29:51;;;;;;;9.20;5.57;;;15.30;1.00;;;;;;5096230;28;20229;-71
2023/05/18 07:32:16;;;;;;;12.10;5.40;;;15.90;99.90;;;;;;5096478;28;20249;-72
2023/05/18 07:34:45;;;;;;;9.48;5.45;;;17.90;1.00;;;;;;5096439;28;20171;-71
2023/05/18 07:37:11;;;;;;;10.57;5.20;;;18.70;1.00;;;;;;5096169;28;20229;-72
2023/05/18 07:39:37;;;;;;;8.15;4.93;;;19.10;99.90;;;;;;5096232;28;20176;-71
2023/05/18 07:42:04;;;;;;;8.38;4.88;;;19.20;99.90;;;;;;5096183;28;20271;-71
2023/05/18 07:44:30;;;;;;;10.75;5.45;;;18.80;99.90;;;;;;5096218;28;20164;-71
2023/05/18 07:46:55;;;;;;;9.90;4.88;;;19.50;99.90;;;;;;5096069;28;20194;-71
2023/05/18 07:49:24;;;;;;;7.15;5.15;;;19.10;1.00;;;;;;5096000;28;20518;-72
2023/05/18 07:51:50;;;;;;;11.23;5.95;;;19.10;1.00;;;;;;5094439;28;20212;-71
2023/05/18 07:54:16;;;;;;;9.20;5.15;;;19.40;99.90;;;;;;5096256;28;20178;-71
2023/05/18 07:56:43;;;;;;;8.57;5.82;;;20.30;1.00;;;;;;5095517;28;20176;-71
2023/05/18 07:59:09;;;;;;;7.55;5.32;;;20.90;99.90;;;;;;5095882;28;20172;-72
2023/05/18 08:01:36;;;;;;;8.75;5.28;;;20.70;99.90;;;;;;5095609;28;20221;-71
2023/05/18 08:04:02;;;;;;;9.48;5.80;;;20.70;99.90;;;;;;5095573;28;20180;-71
2023/05/18 08:06:28;;;;;;;11.38;5.60;;;20.60;99.90;;;;;;5095618;28;20164;-72
2023/05/18 08:08:55;;;;;;;8.45;5.82;;;21.30;1.00;;;;;;5095435;28;20543;-72
2023/05/18 08:11:21;;;;;;;8.63;5.93;;;22.00;1.00;;;;;;5094093;28;20197;-73
2023/05/18 08:13:47;;;;;;;9.02;5.55;;;23.40;1.00;;;;;;5095530;28;20241;-72
2023/05/18 08:16:12;;;;;;;10.55;6.15;;;25.00;99.90;;;;;;5095107;28;20213;-71
2023/05/18 08:18:39;;;;;;;10.48;6.38;;;22.90;99.90;;;;;;5096145;28;20556;-71
2023/05/18 08:21:07;;;;;;;9.73;6.25;;;22.10;1.00;;;;;;5095411;28;20233;-72
2023/05/18 08:23:33;;;;;;;7.70;5.82;;;21.50;1.00;;;;;;5095171;28;20164;-72
2023/05/18 08:25:59;;;;;;;6.95;5.47;;;22.00;1.00;;;;;;5094866;28;20211;-72
2023/05/18 08:28:25;;;;;;;10.70;5.65;;;22.00;1.00;;;;;;5095397;28;20210;-72
2023/05/18 08:30:51;;;;;;;10.38;5.70;;;23.70;1.00;;;;;;5095057;28;20273;-73
2023/05/18 08:33:16;;;;;;;8.65;5.88;;;24.20;99.90;;;;;;5095432;28;20310;-71
2023/05/18 08:35:42;;;;;;;9.32;5.68;;;22.70;99.90;;;;;;5095769;28;20176;-72
2023/05/18 08:38:08;;;;;;;7.88;5.85;;;22.20;1.00;;;;;;5095192;28;20627;-72
2023/05/18 08:40:49;;;;;;;8.25;6.22;;;22.30;1.00;;;;;;5093698;28;20176;-72
2023/05/18 08:43:22;;;;;;;12.70;6.65;;;21.20;1.00;;;;;;5095130;28;20258;-72
2023/05/18 08:45:54;;;;;;;11.43;5.90;;;21.40;1.00;;;;;;5094915;28;20171;-72
2023/05/18 08:48:22;;;;;;;9.25;5.53;;;20.70;99.90;;;;;;5095123;28;20168;-73
2023/05/18 08:50:52;;;;;;;12.68;6.45;;;21.00;99.90;;;;;;5094757;28;20183;-72
2023/05/18 08:53:20;;;;;;;12.40;5.22;;;21.10;99.90;;;;;;5095261;28;20315;-73
2023/05/18 08:55:49;;;;;;;11.30;5.78;;;20.60;1.00;;;;;;5095094;28;20165;-73
2023/05/18 08:58:18;;;;;;;10.57;5.72;;;19.30;1.00;;;;;;5094684;28;20164;-73
2023/05/18 09:00:44;;;;;;;10.90;6.28;;;19.20;1.00;;;;;;5094430;28;20164;-72
2023/05/18 09:03:10;;;;;;;10.07;6.15;;;21.00;1.00;;;;;;5075934;28;20533;-72
2023/05/18 09:05:36;;;;;;;10.63;5.63;;;22.60;1.00;;;;;;5094777;28;20267;-72
2023/05/18 09:08:04;;;;;;;10.90;6.40;;;22.00;1.00;;;;;;5094674;28;20191;-71
2023/05/18 09:10:32;;;;;;;8.52;6.03;;;21.50;1.00;;;;;;5094610;28;20163;-73
2023/05/18 09:13:01;;;;;;;9.30;5.72;;;21.70;1.00;;;;;;5093711;28;20204;-72
2023/05/18 09:15:27;;;;;;;9.25;5.70;;;21.10;1.00;;;;;;5094203;28;20527;-71
2023/05/18 09:17:53;;;;;;;7.63;5.68;;;21.70;1.00;;;;;;5094051;28;20251;-72
2023/05/18 09:20:19;;;;;;;9.90;6.03;;;21.50;1.00;;;;;;5094488;28;20195;-72
2023/05/18 09:22:45;;;;;;;9.65;5.53;;;20.90;1.00;;;;;;5094169;28;20167;-72
2023/05/18 09:25:10;;;;;;;9.30;5.32;;;21.10;1.00;;;;;;5094213;28;20710;-71
2023/05/18 09:27:36;;;;;;;7.88;5.07;;;19.10;99.90;;;;;;5093074;28;20666;-73
2023/05/18 09:30:03;;;;;;;8.10;5.88;;;19.10;1.00;;;;;;5093806;28;20266;-71
2023/05/18 09:32:35;;;;;;;9.23;5.60;;;19.80;1.00;;;;;;5094538;28;20243;-73
2023/05/18 09:35:05;;;;;;;7.70;5.32;;;21.30;1.50;;;;;;5094103;28;20611;-72
2023/05/18 09:37:32;;;;;;;7.47;4.15;;;21.60;1.00;;;;;;5093909;28;20591;-72
2023/05/18 09:39:59;;;;;;;9.70;4.22;;;21.50;1.00;;;;;;5094037;28;20175;-71
2023/05/18 09:42:35;;;;;;;11.77;4.78;;;20.40;1.00;;;;;;5093519;28;20167;-72
2023/05/18 09:45:02;;;;;;;7.78;3.78;;;20.80;1.00;;;;;;5093897;28;20384;-72
2023/05/18 09:47:28;;;;;;;7.53;3.45;;;21.40;1.00;;;;;;5093965;28;20646;-71
2023/05/18 09:49:56;;;;;;;8.23;3.63;;;20.10;1.00;;;;;;5093567;28;20168;-71
2023/05/18 09:52:22;;;;;;;7.70;4.22;;;19.70;1.00;;;;;;5093255;28;20651;-72
2023/05/18 09:54:59;;;;;;;5.47;3.67;;;19.60;1.00;;;;;;5094002;28;20175;-72
2023/05/18 09:57:25;;;;;;;9.63;3.97;;;18.70;1.00;;;;;;5092660;28;20186;-72
2023/05/18 10:00:08;;;;;;;17.42;10.35;;;17.90;1.00;;;;;;5093617;28;20681;-72
2023/05/18 10:02:37;;;;;;;14.82;8.60;;;17.90;99.90;;;;;;5093629;28;20167;-72
2023/05/18 10:05:03;;;;;;;11.43;5.57;;;18.30;99.90;;;;;;5093356;28;20164;-71
2023/05/18 10:07:30;;;;;;;11.40;5.38;;;17.70;99.90;;;;;;5092204;28;20168;-72
2023/05/18 10:10:02;;;;;;;9.75;6.13;;;18.50;1.00;;;;;;5091129;28;20642;-71
2023/05/18 10:12:28;;;;;;;6.40;5.32;;;18.70;1.00;;;;;;5093086;28;20572;-72
2023/05/18 10:14:54;;;;;;;10.50;4.97;;;18.60;1.00;;;;;;5092999;28;20183;-71
2023/05/18 10:17:21;;;;;;;8.88;5.13;;;18.50;24.20;;;;;;5093216;28;20176;-72
2023/05/18 10:19:51;;;;;;;8.15;5.35;;;18.90;1.00;;;;;;5092920;28;20160;-71
2023/05/18 10:22:19;;;;;;;6.63;5.22;;;18.70;99.90;;;;;;5092582;28;20225;-72
2023/05/18 10:24:48;;;;;;;9.38;5.35;;;18.90;99.90;;;;;;5093197;28;20203;-71
2023/05/18 10:27:18;;;;;;;8.18;4.80;;;19.10;99.90;;;;;;5092984;28;20655;-72
2023/05/18 10:29:45;;;;;;;8.73;4.55;;;20.50;1.00;;;;;;5092908;28;20191;-73
2023/05/18 10:32:12;;;;;;;7.43;4.43;;;21.30;1.00;;;;;;5093235;28;20753;-71
2023/05/18 10:34:40;;;;;;;7.60;4.40;;;21.60;1.00;;;;;;5091415;28;20648;-71
2023/05/18 10:37:06;;;;;;;8.45;4.45;;;21.30;99.90;;;;;;5093006;28;20199;-71
2023/05/18 10:39:36;;;;;;;8.88;4.43;;;21.50;1.00;;;;;;5092771;28;20168;-71
2023/05/18 10:42:03;;;;;;;8.50;4.60;;;22.10;99.90;;;;;;5091838;28;20707;-71
2023/05/18 10:44:30;;;;;;;10.18;4.65;;;21.50;99.90;;;;;;5093163;28;20164;-72
2023/05/18 10:46:55;;;;;;;14.65;5.75;;;21.10;99.90;;;;;;5092754;28;20168;-71
2023/05/18 10:49:24;;;;;;;10.32;4.40;;;21.60;99.90;;;;;;5092889;28;20171;-72
2023/05/18 10:51:53;;;;;;;7.75;4.90;;;21.20;99.90;;;;;;5092101;28;20274;-72
2023/05/18 10:54:22;;;;;;;6.88;4.65;;;19.70;1.00;;;;;;5093196;28;20168;-71
2023/05/18 10:56:50;;;;;;;9.63;4.60;;;20.00;1.00;;;;;;5092794;28;20266;-72
2023/05/18 10:59:17;;;;;;;10.82;4.97;;;19.50;1.00;;;;;;5092705;28;20198;-72
2023/05/18 11:01:45;;;;;;;6.50;4.32;;;19.60;1.00;;;;;;5091428;28;20168;-72
2023/05/18 11:04:10;;;;;;;7.85;5.35;;;19.70;1.00;;;;;;5092768;28;20199;-72
2023/05/18 11:06:37;;;;;;;9.38;5.25;;;20.00;1.00;;;;;;5092691;28;20582;-72
2023/05/18 11:09:03;;;;;;;8.40;4.97;;;20.00;1.00;;;;;;5092519;28;20195;-72
2023/05/18 11:11:29;;;;;;;6.32;4.43;;;20.20;1.00;;;;;;5092359;28;20168;-72
2023/05/18 11:14:02;;;;;;;13.13;4.65;;;20.10;1.00;;;;;;5092797;28;20214;-72
2023/05/18 11:16:35;;;;;;;6.53;4.43;;;19.20;15.80;;;;;;5092528;28;20160;-72
2023/05/18 11:19:10;;;;;;;9.45;4.78;;;18.70;21.50;;;;;;5092440;28;20174;-72
2023/05/18 11:21:40;;;;;;;8.63;5.68;;;17.80;99.90;;;;;;5092749;28;20168;-72
2023/05/18 11:24:30;;;;;;;5.20;4.70;;;18.30;1.00;;;;;;5090586;28;20172;-72
2023/05/18 11:27:06;;;;;;;9.68;4.85;;;18.20;1.00;;;;;;5092099;28;20280;-73
2023/05/18 11:29:34;;;;;;;9.20;4.57;;;18.30;1.00;;;;;;5092718;28;20175;-72
2023/05/18 11:32:00;;;;;;;7.13;4.90;;;19.00;99.90;;;;;;5092266;28;20219;-72
2023/05/18 11:34:44;;;;;;;9.32;5.22;;;19.40;99.90;;;;;;5091494;28;20218;-72
2023/05/18 11:37:14;;;;;;;6.93;5.07;;;18.60;99.90;;;;;;5092630;28;20164;-71
2023/05/18 11:39:40;;;;;;;8.95;5.80;;;17.70;99.90;;;;;;5091776;28;20183;-72
2023/05/18 11:42:08;;;;;;;7.20;4.78;;;18.10;99.90;;;;;;5092480;28;20168;-71
2023/05/18 11:44:34;;;;;;;10.77;5.18;;;18.30;1.00;;;;;;5092273;28;20167;-73
2023/05/18 11:47:07;;;;;;;11.27;5.32;;;19.00;1.00;;;;;;5093529;28;20631;-71
2023/05/18 11:49:45;;;;;;;7.85;5.50;;;19.10;99.90;;;;;;5096068;28;20172;-73
2023/05/18 11:52:21;;;;;;;8.60;5.88;;;18.40;99.90;;;;;;5096136;28;20191;-72
2023/05/18 11:54:54;;;;;;;8.40;5.20;;;18.10;1.00;;;;;;5095311;28;20168;-73
2023/05/18 11:57:25;;;;;;;9.60;5.47;;;17.60;1.00;;;;;;5095877;28;20186;-73
2023/05/18 11:59:58;;;;;;;8.82;4.43;;;17.50;1.00;;;;;;5095493;28;20237;-73
2023/05/18 12:02:30;;;;;;;11.48;5.30;;;17.20;99.90;;;;;;5095190;28;20631;-73
2023/05/18 12:04:58;;;;;;;8.30;5.07;;;17.10;1.00;;;;;;5096391;28;20627;-73
2023/05/18 12:07:26;;;;;;;11.37;6.03;;;16.70;24.70;;;;;;5095687;28;20168;-72
2023/05/18 12:09:59;;;;;;;6.27;5.10;;;17.00;1.00;;;;;;5095046;28;20163;-73
2023/05/18 12:12:26;;;;;;;9.70;5.37;;;17.10;1.00;;;;;;5095282;28;20642;-73
2023/05/18 12:14:57;;;;;;;11.50;5.07;;;16.90;99.90;;;;;;5094662;28;20172;-73
2023/05/18 12:17:39;;;;;;;7.03;5.60;;;16.90;99.90;;;;;;5095392;28;20265;-74
2023/05/18 12:20:10;;;;;;;8.27;5.22;;;17.60;1.00;;;;;;5094291;28;20168;-73
2023/05/18 12:22:36;;;;;;;6.03;4.85;;;17.70;1.00;;;;;;5094897;28;20190;-74
2023/05/18 12:25:01;;;;;;;7.45;5.15;;;17.60;4.70;;;;;;5094347;28;20175;-74
2023/05/18 12:27:28;;;;;;;11.23;5.50;;;18.20;1.00;;;;;;5095418;28;20191;-74
2023/05/18 12:29:53;;;;;;;8.35;5.63;;;18.50;1.00;;;;;;5093427;28;20256;-74
2023/05/18 12:32:19;;;;;;;8.20;4.72;;;19.20;99.90;;;;;;5095730;28;20691;-74
2023/05/18 12:34:45;;;;;;;9.02;5.43;;;19.10;1.00;;;;;;5095333;28;20168;-73
2023/05/18 12:37:10;;;;;;;8.05;5.95;;;17.70;1.00;;;;;;5094994;28;20182;-73
2023/05/18 12:39:36;;;;;;;8.63;6.03;;;17.00;1.00;;;;;;5094868;28;20160;-72
2023/05/18 12:42:13;;;;;;;10.70;6.00;;;17.10;99.90;;;;;;5094531;28;20169;-73
2023/05/18 12:44:42;;;;;;;12.30;5.57;;;17.20;1.00;;;;;;5095157;28;20272;-73
2023/05/18 12:47:12;;;;;;;7.57;5.90;;;17.50;99.90;;;;;;5093967;28;20168;-73
2023/05/18 12:49:38;;;;;;;10.18;5.68;;;17.90;1.00;;;;;;5094598;28;20174;-74
2023/05/18 12:52:11;;;;;;;8.18;5.97;;;18.20;1.00;;;;;;5094491;28;20207;-72